Time;durP1;ratioP1;P1;durP2;ratioP2;P2;SDS_P1;SDS_P2;PMS_P1;PMS_P2;Temp;Humidity;BMP_temperature;BMP_pressure;BME280_temperature;BME280_humidity;BME280_pressure;Samples;Min_cycle;Max_cycle;Signal;HPM_P1;HPM_P2
2022/10/28 00:01:10;;;;;;;4.72;3.60;;;;;;;18.25;56.30;94363.03;4985158;28;20069;-85
2022/10/28 00:03:38;;;;;;;6.68;4.10;;;;;;;18.26;55.98;94369.25;4994125;28;20247;-85
2022/10/28 00:06:10;;;;;;;4.43;3.67;;;;;;;18.25;56.04;94363.03;4977720;28;20101;-88
2022/10/28 00:08:36;;;;;;;5.03;3.92;;;;;;;18.26;56.19;94369.25;5009554;28;20055;-85
2022/10/28 00:11:18;;;;;;;5.57;3.95;;;;;;;18.26;55.89;94370.00;5010231;28;20029;-87
2022/10/28 00:13:44;;;;;;;3.90;3.28;;;;;;;18.27;55.90;94357.81;5009398;28;20394;-84
2022/10/28 00:16:12;;;;;;;4.45;3.78;;;;;;;18.25;56.00;94363.03;4992985;28;20029;-87
2022/10/28 00:18:38;;;;;;;4.25;3.47;;;;;;;18.25;56.20;94359.53;5009458;28;20057;-84
2022/10/28 00:21:06;;;;;;;4.22;3.83;;;;;;;18.26;55.62;94363.78;4993113;28;20660;-86
2022/10/28 00:23:31;;;;;;;4.22;3.40;;;;;;;18.25;55.72;94363.03;5009389;28;20116;-90
2022/10/28 00:26:06;;;;;;;4.72;3.60;;;;;;;18.25;55.79;94367.75;4977295;28;20037;-89
2022/10/28 00:28:31;;;;;;;3.53;3.10;;;;;;;18.25;55.58;94368.50;5025485;28;20112;-85
2022/10/28 00:31:05;;;;;;;3.70;2.88;;;;;;;18.24;55.65;94369.00;4990456;28;20054;-85
2022/10/28 00:33:30;;;;;;;3.85;3.22;;;;;;;18.25;56.05;94362.28;4989587;28;20042;-88
2022/10/28 00:36:09;;;;;;;3.78;2.97;;;;;;;18.25;56.36;94359.53;4987109;28;20054;-87
2022/10/28 00:38:34;;;;;;;4.60;3.40;;;;;;;18.24;56.24;94347.84;4965602;28;20460;-87
2022/10/28 00:40:59;;;;;;;4.60;3.80;;;;;;;18.24;56.00;94361.53;4958806;28;20061;-89
2022/10/28 00:43:41;;;;;;;3.38;3.08;;;;;;;18.22;56.00;94353.06;4989997;28;20042;-89
2022/10/28 00:46:14;;;;;;;4.82;3.47;;;;;;;18.23;56.25;94351.81;4986667;28;20046;-89
2022/10/28 00:48:40;;;;;;;3.90;3.25;;;;;;;18.23;56.06;94348.34;4986817;28;20118;-86
2022/10/28 00:51:06;;;;;;;3.72;2.92;;;;;;;18.24;56.01;94344.34;4986418;28;20037;-85
2022/10/28 00:53:32;;;;;;;3.63;3.15;;;;;;;18.23;56.06;94351.06;4961672;28;20487;-89
2022/10/28 00:55:58;;;;;;;4.28;3.40;;;;;;;18.23;56.04;94354.56;4977035;28;20033;-86
2022/10/28 00:58:24;;;;;;;4.85;3.40;;;;;;;18.23;55.94;94365.50;4961122;28;20034;-88
2022/10/28 01:00:49;;;;;;;3.67;3.03;;;;;;;18.25;56.07;94373.22;4958231;28;20042;-86
2022/10/28 01:03:15;;;;;;;3.28;2.60;;;;;;;18.22;56.04;94355.78;4975064;28;20030;-85
2022/10/28 01:05:41;;;;;;;3.35;3.03;;;;;;;18.23;56.16;94368.25;4977269;28;20038;-85
2022/10/28 01:08:07;;;;;;;3.22;2.92;;;;;;;18.23;56.08;94365.50;4969460;28;20039;-84
2022/10/28 01:10:48;;;;;;;3.10;2.78;;;;;;;18.22;55.81;94355.78;4976995;28;20045;-89
2022/10/28 01:13:13;;;;;;;3.03;2.55;;;;;;;18.22;56.05;94347.59;5009727;28;20049;-85
2022/10/28 01:15:53;;;;;;;3.55;3.13;;;;;;;18.23;55.85;94345.59;5009756;28;20034;-90
2022/10/28 01:18:29;;;;;;;3.13;2.83;;;;;;;18.22;56.18;94350.31;4995142;28;20057;-85
2022/10/28 01:21:09;;;;;;;2.92;2.65;;;;;;;18.21;55.88;94346.06;4988163;28;20133;-86
2022/10/28 01:23:55;;;;;;;3.67;2.90;;;;;;;18.21;55.96;94337.88;4990142;28;20042;-85
2022/10/28 01:26:38;;;;;;;3.05;2.42;;;;;;;18.20;56.20;94333.63;4988453;28;20056;-87
2022/10/28 01:29:42;;;;;;;3.47;2.70;;;;;;;18.22;55.86;94344.84;4996893;28;20057;-85
2022/10/28 01:32:12;;;;;;;3.80;2.92;;;;;;;18.23;55.70;94351.06;5014008;28;20096;-87
2022/10/28 01:34:58;;;;;;;3.50;2.40;;;;;;;18.20;56.13;94352.03;5009410;28;20107;-84
2022/10/28 01:37:34;;;;;;;4.57;2.78;;;;;;;18.20;55.78;94339.09;5024555;28;20049;-86
2022/10/28 01:40:00;;;;;;;3.70;2.47;;;;;;;18.20;55.83;94341.09;5046066;28;20044;-87
2022/10/28 01:42:43;;;;;;;3.28;2.50;;;;;;;18.21;55.94;94339.84;5028416;28;20045;-85
2022/10/28 01:45:16;;;;;;;3.08;2.17;;;;;;;18.21;55.80;94337.88;5028502;28;20068;-84
2022/10/28 01:47:46;;;;;;;3.08;2.53;;;;;;;18.21;55.63;94328.91;5028339;28;20046;-85
2022/10/28 01:50:17;;;;;;;2.80;2.30;;;;;;;18.20;55.62;94333.63;5008218;28;20050;-87
2022/10/28 01:52:42;;;;;;;2.88;2.15;;;;;;;18.20;55.72;94330.16;4993855;28;20077;-87
2022/10/28 01:55:14;;;;;;;2.97;2.25;;;;;;;18.19;55.64;94323.19;5009123;28;20030;-84
2022/10/28 01:57:39;;;;;;;2.35;1.92;;;;;;;18.19;55.68;94340.34;5013034;28;20057;-85
2022/10/28 02:00:05;;;;;;;3.03;2.30;;;;;;;18.21;56.10;94326.16;5011910;28;20110;-84
2022/10/28 02:02:31;;;;;;;2.90;2.20;;;;;;;18.20;55.94;94327.41;5011976;28;20207;-90
2022/10/28 02:05:05;;;;;;;2.63;2.30;;;;;;;18.18;55.56;94325.19;5008889;28;20057;-88
2022/10/28 02:07:30;;;;;;;2.35;1.95;;;;;;;18.18;55.83;94327.91;5025669;28;20176;-88
2022/10/28 02:10:08;;;;;;;3.05;2.20;;;;;;;18.21;56.00;94332.41;5028529;28;20501;-84
2022/10/28 02:12:35;;;;;;;2.45;1.95;;;;;;;18.19;56.08;94321.19;5028296;28;20137;-85
2022/10/28 02:15:12;;;;;;;2.40;2.20;;;;;;;18.19;55.61;94317.72;5028195;28;20064;-84
2022/10/28 02:17:42;;;;;;;2.80;2.10;;;;;;;18.18;56.09;94319.72;5025832;28;20610;-84
2022/10/28 02:20:20;;;;;;;2.60;2.08;;;;;;;18.19;55.88;94315.00;5044331;28;20043;-87
2022/10/28 02:22:50;;;;;;;2.88;2.15;;;;;;;18.18;55.55;94319.72;5013595;28;20147;-89
2022/10/28 02:25:19;;;;;;;2.10;1.90;;;;;;;18.20;56.01;94313.72;5008164;28;20037;-84
2022/10/28 02:28:08;;;;;;;2.97;2.10;;;;;;;18.18;55.74;94322.44;5025619;28;20053;-86
2022/10/28 02:30:44;;;;;;;2.63;1.98;;;;;;;18.18;55.76;94318.97;5023916;28;20033;-84
2022/10/28 02:33:11;;;;;;;3.72;2.22;;;;;;;18.17;55.87;94320.94;5007769;28;20034;-85
2022/10/28 02:35:45;;;;;;;2.97;2.53;;;;;;;18.17;55.67;94312.75;5024928;28;20042;-86
2022/10/28 02:38:14;;;;;;;2.42;2.05;;;;;;;18.19;55.83;94315.00;5021032;28;20238;-85
2022/10/28 02:40:39;;;;;;;2.05;1.60;;;;;;;18.20;55.73;94316.47;4991485;28;20117;-89
2022/10/28 02:43:06;;;;;;;2.22;1.75;;;;;;;18.17;55.94;94312.75;4993871;28;20115;-84
2022/10/28 02:45:35;;;;;;;2.97;2.20;;;;;;;18.17;55.63;94312.75;5011964;28;20034;-87
2022/10/28 02:48:06;;;;;;;2.10;1.73;;;;;;;18.19;55.76;94312.25;5008599;28;20038;-86
2022/10/28 02:50:34;;;;;;;2.10;1.80;;;;;;;18.17;56.02;94314.72;5000990;28;20193;-85
2022/10/28 02:53:01;;;;;;;2.58;1.80;;;;;;;18.17;55.77;94320.94;5008143;28;20400;-86
2022/10/28 02:55:31;;;;;;;2.67;1.70;;;;;;;18.17;55.99;94314.72;4991767;28;20072;-84
2022/10/28 02:57:56;;;;;;;2.38;1.80;;;;;;;18.17;55.71;94322.94;5009222;28;20119;-85
2022/10/28 03:00:23;;;;;;;2.38;1.85;;;;;;;18.18;55.48;94319.72;5010656;28;20053;-85
2022/10/28 03:02:49;;;;;;;1.85;1.67;;;;;;;18.17;55.72;94304.53;5017700;28;20056;-88
2022/10/28 03:05:14;;;;;;;2.53;1.92;;;;;;;18.17;56.10;94312.75;5011004;28;20383;-84
2022/10/28 03:07:40;;;;;;;2.05;1.73;;;;;;;18.16;55.88;94300.28;5027325;28;20033;-88
2022/10/28 03:10:05;;;;;;;2.83;1.90;;;;;;;18.16;55.64;94308.50;5011108;28;20041;-86
2022/10/28 03:12:31;;;;;;;3.05;1.90;;;;;;;18.17;55.66;94295.56;5016262;28;20053;-85
2022/10/28 03:14:56;;;;;;;2.63;2.35;;;;;;;18.15;55.83;94307.75;5025888;28;20040;-86
2022/10/28 03:17:22;;;;;;;2.88;1.65;;;;;;;18.14;55.90;94303.50;5026005;28;20053;-88
2022/10/28 03:19:47;;;;;;;2.35;1.60;;;;;;;18.15;55.76;94307.75;5024307;28;20469;-88
2022/10/28 03:22:13;;;;;;;1.83;1.52;;;;;;;18.15;55.85;94310.50;5016672;28;20037;-85
2022/10/28 03:24:38;;;;;;;1.77;1.55;;;;;;;18.16;55.70;94311.25;5025093;28;20045;-87
2022/10/28 03:27:04;;;;;;;2.40;1.63;;;;;;;18.15;55.86;94313.22;5007203;28;20033;-85
2022/10/28 03:29:29;;;;;;;2.22;1.50;;;;;;;18.14;55.77;94317.19;5024859;28;20443;-87
2022/10/28 03:31:54;;;;;;;3.72;1.58;;;;;;;18.15;55.66;94313.22;5026575;28;20056;-85
2022/10/28 03:34:20;;;;;;;2.35;1.58;;;;;;;18.16;55.73;94319.44;5026640;28;20034;-84
2022/10/28 03:36:45;;;;;;;2.10;1.50;;;;;;;18.14;56.17;94314.47;5043335;28;20399;-88
2022/10/28 03:39:11;;;;;;;2.05;1.67;;;;;;;18.14;55.94;94310.97;5025591;28;20041;-88
2022/10/28 03:41:36;;;;;;;2.08;1.40;;;;;;;18.17;55.77;94306.50;5008026;28;20028;-84
2022/10/28 03:44:01;;;;;;;1.75;1.60;;;;;;;18.14;55.59;94310.97;4989848;28;20034;-87
2022/10/28 03:46:27;;;;;;;1.75;1.63;;;;;;;18.15;55.60;94307.00;4990391;28;20395;-84
2022/10/28 03:48:52;;;;;;;1.80;1.60;;;;;;;18.13;55.79;94306.72;5016833;28;20045;-85
2022/10/28 03:51:18;;;;;;;1.58;1.48;;;;;;;18.15;55.82;94312.47;5025009;28;20044;-85
2022/10/28 03:53:43;;;;;;;1.88;1.50;;;;;;;18.15;55.78;94309.75;5026988;28;20034;-85
2022/10/28 03:56:08;;;;;;;1.98;1.40;;;;;;;18.14;55.47;94316.44;5026324;28;20021;-84
2022/10/28 03:58:34;;;;;;;1.58;1.42;;;;;;;18.14;55.84;94314.47;5026179;28;20045;-88
2022/10/28 04:00:59;;;;;;;2.15;1.48;;;;;;;18.14;55.92;94313.72;5009524;28;20115;-85
2022/10/28 04:03:25;;;;;;;2.20;1.40;;;;;;;18.14;55.67;94310.97;5025099;28;20052;-87
2022/10/28 04:05:50;;;;;;;1.40;1.30;;;;;;;18.14;55.92;94308.97;5026501;28;20026;-84
2022/10/28 04:08:16;;;;;;;1.90;1.67;;;;;;;18.11;55.85;94307.22;5010225;28;20041;-85
2022/10/28 04:10:42;;;;;;;1.67;1.13;;;;;;;18.13;55.72;94304.00;5023140;28;20041;-84
2022/10/28 04:13:08;;;;;;;1.45;1.35;;;;;;;18.14;55.68;94310.97;5000165;28;20040;-84
2022/10/28 04:15:33;;;;;;;1.88;1.20;;;;;;;18.13;55.74;94302.00;4989955;28;20033;-84
2022/10/28 04:17:58;;;;;;;2.00;1.73;;;;;;;18.13;55.54;94301.25;5026121;28;20045;-85
2022/10/28 04:20:24;;;;;;;1.83;1.40;;;;;;;18.14;55.93;94303.50;4989713;28;20111;-85
2022/10/28 04:22:49;;;;;;;3.92;1.73;;;;;;;18.13;55.37;94304.75;5024461;28;20526;-89
2022/10/28 04:25:15;;;;;;;2.33;1.65;;;;;;;18.11;55.74;94298.25;4989488;28;20038;-85
2022/10/28 04:27:42;;;;;;;2.22;1.20;;;;;;;18.13;55.46;94296.53;4991231;28;20117;-86
2022/10/28 04:30:08;;;;;;;9.13;2.33;;;;;;;18.18;55.74;94308.75;4999783;28;20121;-84
2022/10/28 04:32:33;;;;;;;9.52;5.32;;;;;;;18.20;55.80;94303.53;5001404;28;20057;-84
2022/10/28 04:34:59;;;;;;;6.00;3.35;;;;;;;18.23;55.68;94304.53;5021686;28;20376;-88
2022/10/28 04:37:24;;;;;;;15.77;9.13;;;;;;;18.22;56.19;94301.06;5025231;28;20044;-85
2022/10/28 04:39:49;;;;;;;6.10;3.95;;;;;;;18.26;55.74;94303.56;5014497;28;20088;-86
2022/10/28 04:42:15;;;;;;;8.15;4.25;;;;;;;18.27;55.35;94299.59;5007958;28;20391;-85
2022/10/28 04:44:40;;;;;;;7.78;3.70;;;;;;;18.28;55.67;94303.84;4992344;28;20041;-85
2022/10/28 04:47:06;;;;;;;13.77;6.13;;;;;;;18.32;55.34;94307.84;5027111;28;20045;-85
2022/10/28 04:49:31;;;;;;;17.95;11.30;;;;;;;18.28;55.58;94293.63;5008949;28;20038;-88
2022/10/28 04:51:57;;;;;;;25.30;8.38;;;;;;;18.29;55.67;94300.63;5035287;28;20104;-89
2022/10/28 04:54:22;;;;;;;26.70;5.70;;;;;;;18.29;54.62;94294.38;5044333;28;20399;-89
2022/10/28 04:56:48;;;;;;;23.73;4.30;;;;;;;18.22;53.59;94303.03;5012181;28;20368;-90
2022/10/28 04:59:14;;;;;;;12.02;4.60;;;;;;;18.16;52.51;94283.88;5048091;28;20111;-87
2022/10/28 05:01:39;;;;;;;23.55;4.72;;;;;;;18.07;52.52;94295.00;5008127;28;20426;-90
2022/10/28 05:04:05;;;;;;;15.98;5.05;;;;;;;18.04;52.38;94287.75;5010830;28;21914;-87
2022/10/28 05:06:30;;;;;;;25.70;7.85;;;;;;;18.03;52.22;94291.72;4990478;28;20105;-87
2022/10/28 05:08:56;;;;;;;20.92;6.43;;;;;;;17.99;52.39;94291.19;4996494;28;20076;-85
2022/10/28 05:11:21;;;;;;;25.33;8.43;;;;;;;17.97;51.93;94294.41;4980345;28;20034;-87
2022/10/28 05:13:46;;;;;;;29.98;10.02;;;;;;;17.95;51.73;94291.44;4981127;28;20042;-85
2022/10/28 05:16:12;;;;;;;31.63;7.88;;;;;;;17.89;52.13;94295.38;5002338;28;20495;-87
2022/10/28 05:18:37;;;;;;;27.90;9.00;;;;;;;17.86;52.45;94288.88;4949802;28;20538;-86
2022/10/28 05:21:03;;;;;;;30.55;10.07;;;;;;;17.82;52.00;94280.13;4975622;28;20038;-86
2022/10/28 05:23:28;;;;;;;32.47;11.25;;;;;;;17.81;52.12;94289.56;4971398;28;20125;-84
2022/10/28 05:25:53;;;;;;;22.38;9.65;;;;;;;17.80;52.29;94279.88;4999250;28;20092;-85
2022/10/28 05:28:20;;;;;;;52.75;24.05;;;;;;;17.79;52.21;94301.00;5012448;28;20042;-87
2022/10/28 05:30:46;;;;;;;40.35;21.25;;;;;;;17.84;52.63;94294.06;4993537;28;20132;-88
2022/10/28 05:33:12;;;;;;;48.42;22.88;;;;;;;17.87;52.87;94295.09;4999457;28;20045;-87
2022/10/28 05:35:38;;;;;;;42.67;23.83;;;;;;;17.86;52.77;94291.59;4994149;28;20029;-86
2022/10/28 05:38:03;;;;;;;61.80;32.70;;;;;;;17.92;53.01;94292.41;5009025;28;20041;-89
2022/10/28 05:40:31;;;;;;;75.85;37.40;;;;;;;17.90;52.69;94283.94;5010717;28;20101;-89
2022/10/28 05:42:56;;;;;;;73.40;39.13;;;;;;;17.90;53.51;94291.41;5013998;28;20041;-85
2022/10/28 05:45:22;;;;;;;88.38;45.83;;;;;;;17.92;53.10;94286.19;5012643;28;20052;-89
2022/10/28 05:47:47;;;;;;;82.35;46.00;;;;;;;17.96;52.86;94283.97;5014640;28;20049;-85
2022/10/28 05:50:14;;;;;;;102.55;47.55;;;;;;;17.96;53.27;94290.22;4963018;28;20447;-87
2022/10/28 05:52:43;;;;;;;84.10;47.70;;;;;;;18.01;53.14;94286.75;5023951;28;20034;-88
2022/10/28 05:55:09;;;;;;;81.30;49.13;;;;;;;17.99;53.58;94291.19;5013438;28;20040;-86
2022/10/28 05:57:34;;;;;;;83.40;50.33;;;;;;;18.01;53.55;94294.94;5010197;28;20046;-86
2022/10/28 06:00:00;;;;;;;89.45;49.35;;;;;;;18.06;53.46;94301.69;5026840;28;20034;-88
2022/10/28 06:02:25;;;;;;;79.25;47.72;;;;;;;18.03;53.55;94305.41;5020915;28;20053;-89
2022/10/28 06:04:51;;;;;;;105.55;53.90;;;;;;;18.08;53.77;94307.44;5022061;28;20038;-89
2022/10/28 06:07:16;;;;;;;120.57;75.85;;;;;;;18.08;53.26;94312.91;5008905;28;20401;-87
2022/10/28 06:09:41;;;;;;;101.72;57.58;;;;;;;18.11;53.33;94311.94;5009483;28;20033;-85
2022/10/28 06:12:07;;;;;;;100.15;57.00;;;;;;;18.12;52.81;94311.44;5007994;28;20037;-86
2022/10/28 06:14:33;;;;;;;91.68;51.30;;;;;;;18.13;53.28;94315.69;4991210;28;20588;-86
2022/10/28 06:16:58;;;;;;;85.70;51.10;;;;;;;18.16;53.07;94313.97;5006977;28;20487;-85
2022/10/28 06:19:23;;;;;;;93.72;52.33;;;;;;;18.18;53.45;94314.25;5025174;28;20049;-86
2022/10/28 06:21:49;;;;;;;93.70;52.78;;;;;;;18.20;53.28;94313.72;5021740;28;20507;-86
2022/10/28 06:24:14;;;;;;;84.93;52.65;;;;;;;18.20;53.40;94319.94;5013095;28;20038;-85
2022/10/28 06:26:40;;;;;;;90.07;53.00;;;;;;;18.26;53.39;94326.22;5010580;28;20361;-85
2022/10/28 06:29:05;;;;;;;82.07;51.72;;;;;;;18.26;53.18;94322.72;4994594;28;20507;-86
2022/10/28 06:31:32;;;;;;;78.13;50.38;;;;;;;18.24;53.11;94325.19;4971327;28;20268;-87
2022/10/28 06:33:57;;;;;;;76.85;50.13;;;;;;;18.24;52.97;94317.00;5000414;28;20038;-85
2022/10/28 06:36:23;;;;;;;85.40;53.72;;;;;;;18.23;53.13;94318.22;4992546;28;20058;-87
2022/10/28 06:38:51;;;;;;;94.40;54.75;;;;;;;18.23;53.47;94315.50;5009274;28;20113;-87
2022/10/28 06:41:16;;;;;;;95.93;64.63;;;;;;;18.24;53.42;94317.00;4976172;28;20031;-87
2022/10/28 06:43:42;;;;;;;145.70;92.57;;;;;;;18.24;53.53;94317.75;4959991;28;20070;-87
2022/10/28 06:46:07;;;;;;;148.80;97.28;;;;;;;18.24;53.44;94327.94;4952067;28;20047;-86
2022/10/28 06:48:32;;;;;;;140.13;88.93;;;;;;;18.27;53.21;94327.72;4951684;28;20054;-86
2022/10/28 06:50:58;;;;;;;196.65;119.30;;;;;;;18.25;53.11;94327.44;4936858;29;20880;-88
2022/10/28 06:53:25;;;;;;;199.30;127.88;;;;;;;18.26;53.52;94328.94;4932144;29;20453;-86
2022/10/28 06:55:53;;;;;;;177.98;96.68;;;;;;;18.27;53.35;94332.44;4898473;29;20047;-87
2022/10/28 06:58:19;;;;;;;195.07;109.82;;;;;;;18.27;53.37;94343.38;4913446;29;20039;-87
2022/10/28 07:00:44;;;;;;;245.15;142.98;;;;;;;18.27;53.33;94332.44;4913728;29;20115;-86
2022/10/28 07:03:10;;;;;;;220.38;124.00;;;;;;;18.27;53.38;94335.94;4932313;29;20047;-87
2022/10/28 07:05:35;;;;;;;158.88;98.80;;;;;;;18.30;53.27;94334.22;4894447;29;20051;-88
2022/10/28 07:08:00;;;;;;;155.90;87.68;;;;;;;18.32;53.21;94329.00;4878029;29;20059;-86
2022/10/28 07:10:26;;;;;;;165.23;100.70;;;;;;;18.31;53.21;94336.47;4926146;29;20242;-86
2022/10/28 07:12:52;;;;;;;163.70;99.97;;;;;;;18.31;53.40;94341.19;4914991;29;20451;-86
2022/10/28 07:15:18;;;;;;;177.10;100.10;;;;;;;18.32;53.20;94331.72;4938608;28;20443;-87
2022/10/28 07:17:43;;;;;;;157.75;94.45;;;;;;;18.31;53.25;94330.97;4950788;28;20042;-87
2022/10/28 07:20:09;;;;;;;158.07;88.18;;;;;;;18.31;53.53;94330.97;4948866;28;20046;-85
2022/10/28 07:22:35;;;;;;;141.00;82.78;;;;;;;18.35;53.26;94338.97;4935685;28;20047;-85
2022/10/28 07:25:00;;;;;;;127.18;79.00;;;;;;;18.39;53.63;94334.03;4967248;28;20038;-87
2022/10/28 07:27:25;;;;;;;122.28;76.65;;;;;;;18.38;53.55;94338.75;4950969;28;20038;-87
2022/10/28 07:29:51;;;;;;;124.90;72.97;;;;;;;18.38;53.61;94340.75;4948118;28;20505;-87
2022/10/28 07:32:17;;;;;;;122.53;71.47;;;;;;;18.36;53.65;94341.22;4918386;28;20030;-86
2022/10/28 07:34:43;;;;;;;115.00;68.60;;;;;;;18.40;53.50;94336.25;4951717;28;20038;-86
2022/10/28 07:37:09;;;;;;;126.93;68.72;;;;;;;18.40;53.26;94347.19;4987757;28;20045;-87
2022/10/28 07:39:35;;;;;;;110.45;66.13;;;;;;;18.39;53.86;94336.75;4964466;28;20121;-87
2022/10/28 07:42:00;;;;;;;119.43;67.40;;;;;;;18.41;53.49;94343.22;4978788;28;20030;-86
2022/10/28 07:44:26;;;;;;;115.13;63.92;;;;;;;18.41;53.80;94337.75;4962901;28;20043;-89
2022/10/28 07:46:51;;;;;;;118.82;63.35;;;;;;;18.43;53.55;94340.75;4983522;28;20042;-87
2022/10/28 07:49:16;;;;;;;120.72;66.97;;;;;;;18.44;53.51;94346.97;4968534;28;20455;-86
2022/10/28 07:51:42;;;;;;;113.97;62.63;;;;;;;18.45;53.36;94341.03;4951213;28;20039;-86
2022/10/28 07:54:07;;;;;;;125.65;63.80;;;;;;;18.46;53.48;94342.53;4976044;28;20039;-88
2022/10/28 07:56:33;;;;;;;128.38;63.50;;;;;;;18.45;53.90;94338.28;5000735;28;20053;-88
2022/10/28 07:58:59;;;;;;;120.72;63.35;;;;;;;18.49;53.54;94336.06;4987474;28;20404;-86
2022/10/28 08:01:26;;;;;;;116.40;57.97;;;;;;;18.49;53.80;94335.31;4981720;28;20600;-88
2022/10/28 08:03:51;;;;;;;105.57;57.05;;;;;;;18.51;53.72;94338.31;4985761;28;20330;-86
2022/10/28 08:06:18;;;;;;;119.18;58.15;;;;;;;18.52;53.79;94347.28;4990028;28;20038;-88
2022/10/28 08:08:47;;;;;;;125.15;57.65;;;;;;;18.50;53.82;94351.25;4986111;28;20101;-86
2022/10/28 08:11:13;;;;;;;85.70;51.75;;;;;;;18.47;54.21;94357.72;4987045;28;20297;-88
2022/10/28 08:13:39;;;;;;;93.57;51.90;;;;;;;18.46;54.05;94358.19;5003539;28;20042;-86
2022/10/28 08:16:04;;;;;;;83.63;48.95;;;;;;;18.53;54.07;94346.06;4977724;28;20035;-87
2022/10/28 08:18:30;;;;;;;80.35;46.55;;;;;;;18.52;54.24;94360.97;4971917;28;20042;-87
2022/10/28 08:20:58;;;;;;;89.68;45.88;;;;;;;18.53;53.98;94348.78;4973462;28;20034;-86
2022/10/28 08:23:23;;;;;;;74.28;44.28;;;;;;;18.55;53.87;94343.56;4972242;28;20045;-88
2022/10/28 08:25:49;;;;;;;83.80;43.47;;;;;;;18.54;53.66;94345.56;4973002;28;20034;-86
2022/10/28 08:28:15;;;;;;;87.57;42.20;;;;;;;18.57;53.70;94352.06;4989857;28;20033;-90
2022/10/28 08:30:40;;;;;;;75.05;43.50;;;;;;;18.58;53.91;94353.56;4987228;28;20041;-87
2022/10/28 08:33:05;;;;;;;79.28;42.40;;;;;;;18.59;54.03;94353.09;4992139;28;20037;-86
2022/10/28 08:35:31;;;;;;;68.20;41.05;;;;;;;18.55;53.73;94351.78;5028594;28;20076;-86
2022/10/28 08:37:56;;;;;;;83.28;42.88;;;;;;;18.56;53.91;94364.25;4995501;28;20029;-86
2022/10/28 08:40:26;;;;;;;69.57;39.67;;;;;;;18.58;53.76;94359.03;5025445;28;20052;-87
2022/10/28 08:42:53;;;;;;;76.50;39.97;;;;;;;18.59;53.74;94366.00;5023873;28;20038;-87
2022/10/28 08:45:33;;;;;;;71.72;42.63;;;;;;;18.61;53.95;94369.03;4997379;28;20271;-88
2022/10/28 08:48:21;;;;;;;74.05;41.33;;;;;;;18.58;53.70;94368.00;5007699;28;20092;-88
2022/10/28 08:50:50;;;;;;;70.35;39.67;;;;;;;18.59;54.19;94371.50;5005989;28;20046;-88
2022/10/28 08:53:21;;;;;;;72.38;38.65;;;;;;;18.58;54.00;94375.47;5015760;28;20495;-88
2022/10/28 08:55:47;;;;;;;63.13;38.30;;;;;;;18.57;53.81;94371.22;5009351;28;20042;-88
2022/10/28 08:58:18;;;;;;;85.32;36.40;;;;;;;18.61;53.68;94375.28;5026071;28;20495;-89
2022/10/28 09:00:45;;;;;;;62.45;35.20;;;;;;;18.61;53.78;94380.75;5010694;28;20037;-88
2022/10/28 09:03:11;;;;;;;78.05;31.70;;;;;;;18.60;53.42;94373.78;5026708;28;20033;-88
2022/10/28 09:05:41;;;;;;;109.80;33.13;;;;;;;18.60;53.58;94381.22;5014418;28;20403;-88
2022/10/28 09:08:22;;;;;;;94.90;36.03;;;;;;;18.59;53.64;94369.53;5010163;28;20034;-88
2022/10/28 09:11:06;;;;;;;161.95;37.80;;;;;;;18.63;53.58;94375.50;5009910;28;20289;-88
2022/10/28 09:14:09;;;;;;;181.82;37.72;;;;;;;18.59;53.71;94371.50;5029628;28;20048;-88
2022/10/28 09:16:41;;;;;;;176.70;37.55;;;;;;;18.61;53.34;94366.31;5013379;28;20038;-88
2022/10/28 09:19:24;;;;;;;155.40;33.05;;;;;;;18.57;53.58;94369.22;5002572;28;20057;-88
2022/10/28 09:21:52;;;;;;;118.50;32.38;;;;;;;18.58;53.27;94368.00;5026911;28;20058;-88
2022/10/28 09:24:24;;;;;;;113.75;27.15;;;;;;;18.58;53.51;94370.75;5013277;28;20044;-88
2022/10/28 09:27:22;;;;;;;122.07;28.45;;;;;;;18.60;53.29;94373.00;5013977;28;20036;-88
2022/10/28 09:29:50;;;;;;;101.90;26.17;;;;;;;18.62;53.13;94365.06;5018589;28;20050;-89
2022/10/28 09:32:24;;;;;;;106.85;26.52;;;;;;;18.59;53.54;94371.50;5026224;28;20042;-88
2022/10/28 09:34:57;;;;;;;113.45;26.98;;;;;;;18.58;53.41;94370.75;5024668;28;20044;-88
2022/10/28 09:37:27;;;;;;;163.50;29.63;;;;;;;18.58;53.46;94373.47;5036414;28;20083;-88
2022/10/28 09:39:54;;;;;;;140.38;26.67;;;;;;;18.60;53.29;94367.53;5020230;28;20061;-88
2022/10/28 09:42:24;;;;;;;316.52;37.70;;;;;;;18.63;53.08;94377.50;5008108;28;20120;-89
2022/10/28 09:44:53;;;;;;;208.33;30.20;;;;;;;18.67;53.16;94381.50;4993010;28;20037;-87
2022/10/28 09:47:22;;;;;;;174.50;29.38;;;;;;;18.64;53.03;94382.47;5024450;28;20056;-88
2022/10/28 09:49:48;;;;;;;221.05;31.60;;;;;;;18.65;52.59;94386.72;5024882;28;20107;-88
2022/10/28 09:52:26;;;;;;;289.92;36.78;;;;;;;18.62;53.13;94381.50;5024715;28;20049;-89
2022/10/28 09:54:55;;;;;;;267.77;40.78;;;;;;;18.62;52.94;94382.22;5002183;28;20042;-88
2022/10/28 09:57:21;;;;;;;323.98;43.28;;;;;;;18.65;52.91;94386.72;4985799;28;20073;-87
2022/10/28 09:59:46;;;;;;;325.67;42.08;;;;;;;18.61;52.92;94380.00;5024289;28;20034;-88
2022/10/28 10:02:27;;;;;;;321.98;44.33;;;;;;;18.60;53.22;94387.47;5007810;28;20033;-88
2022/10/28 10:04:54;;;;;;;371.73;50.80;;;;;;;18.63;52.93;94391.94;5002271;28;20038;-89
2022/10/28 10:07:37;;;;;;;365.02;51.58;;;;;;;18.64;53.01;94381.72;5000918;28;20705;-89
2022/10/28 10:10:21;;;;;;;406.90;57.15;;;;;;;18.62;53.04;94382.22;5012835;28;20042;-88
2022/10/28 10:12:47;;;;;;;350.73;53.17;;;;;;;18.63;53.73;94382.97;5009618;28;20037;-88
2022/10/28 10:15:17;;;;;;;261.15;37.65;;;;;;;18.61;53.34;94388.22;5016774;28;20049;-87
2022/10/28 10:17:44;;;;;;;245.57;38.00;;;;;;;18.64;53.39;94385.22;5011260;28;20042;-89
2022/10/28 10:20:11;;;;;;;146.98;25.42;;;;;;;18.62;53.31;94382.22;4981156;28;20038;-88
2022/10/28 10:22:41;;;;;;;217.68;33.42;;;;;;;18.66;53.13;94392.94;5008002;28;20066;-88
2022/10/28 10:25:18;;;;;;;183.43;31.40;;;;;;;18.66;53.16;94392.94;5005108;28;20030;-88
2022/10/28 10:27:58;;;;;;;165.48;29.50;;;;;;;18.63;53.24;94385.72;5035959;28;20128;-88
2022/10/28 10:30:28;;;;;;;182.75;30.30;;;;;;;18.65;52.96;94381.25;5013919;28;20045;-89
2022/10/28 10:32:54;;;;;;;139.20;25.00;;;;;;;18.67;53.28;94384.25;5008279;28;20068;-89
2022/10/28 10:35:26;;;;;;;131.82;24.90;;;;;;;18.67;53.29;94383.50;5007578;28;20041;-88
2022/10/28 10:37:51;;;;;;;118.07;23.77;;;;;;;18.68;53.20;94377.53;5007522;28;20053;-88
2022/10/28 10:40:23;;;;;;;128.98;21.83;;;;;;;18.67;53.17;94369.81;4998531;28;20533;-89
2022/10/28 10:42:48;;;;;;;94.55;20.77;;;;;;;18.67;53.17;94378.78;5025520;28;20046;-88
2022/10/28 10:45:13;;;;;;;100.35;20.25;;;;;;;18.67;53.18;94378.03;5003364;28;20033;-89
2022/10/28 10:47:39;;;;;;;107.88;22.27;;;;;;;18.69;54.26;94381.78;5023133;28;20049;-88
2022/10/28 10:50:28;;;;;;;84.32;19.52;;;;;;;18.67;53.54;94381.50;5008900;28;20476;-87
2022/10/28 10:52:55;;;;;;;87.40;19.80;;;;;;;18.74;53.57;94374.84;5026560;28;20041;-87
2022/10/28 10:55:33;;;;;;;82.90;18.42;;;;;;;18.68;53.46;94363.09;5009989;28;20499;-88
2022/10/28 10:57:58;;;;;;;77.40;21.20;;;;;;;18.69;53.29;94362.59;5018686;28;20053;-88
2022/10/28 11:00:27;;;;;;;76.03;18.13;;;;;;;18.74;53.43;94359.16;4997604;28;20239;-89
2022/10/28 11:02:52;;;;;;;54.10;15.80;;;;;;;18.72;53.42;94360.88;5007887;28;20491;-89
2022/10/28 11:05:21;;;;;;;64.18;19.40;;;;;;;18.72;53.08;94358.88;4999259;28;20038;-89
2022/10/28 11:07:47;;;;;;;54.65;16.55;;;;;;;18.74;53.47;94359.16;5007339;28;20029;-88
2022/10/28 11:10:28;;;;;;;58.65;16.42;;;;;;;18.70;53.43;94366.09;5015228;28;20084;-88
2022/10/28 11:12:56;;;;;;;48.80;16.15;;;;;;;18.72;53.24;94356.16;5027107;28;20037;-87
2022/10/28 11:15:27;;;;;;;53.25;16.63;;;;;;;18.73;53.07;94351.41;5025964;28;20049;-88
2022/10/28 11:17:54;;;;;;;72.97;35.28;;;;;;;18.75;53.31;94341.47;5024984;28;20037;-88
2022/10/28 11:20:27;;;;;;;43.92;18.77;;;;;;;18.74;53.10;94350.19;5022370;28;20479;-87
2022/10/28 11:23:03;;;;;;;43.10;20.80;;;;;;;18.75;53.29;94355.16;4991205;28;20113;-88
2022/10/28 11:25:34;;;;;;;43.03;19.73;;;;;;;18.73;53.56;94348.69;5000668;28;20041;-87
2022/10/28 11:28:12;;;;;;;45.67;20.48;;;;;;;18.72;53.47;94347.19;5023856;28;20042;-87